sensor_id;sensor_type;location;lat;lon;timestamp;P1;durP1;ratioP1;P2;durP2;ratioP2
19848;SDS011;10085;51.120;6.956;2024-01-07T00:10:02;13.00;;;4.72;;
19848;SDS011;10085;51.120;6.956;2024-01-07T00:20:07;17.58;;;5.60;;
19848;SDS011;10085;51.120;6.956;2024-01-07T00:30:12;16.57;;;6.40;;
19848;SDS011;10085;51.120;6.956;2024-01-07T00:40:15;15.90;;;6.22;;
19848;SDS011;10085;51.120;6.956;2024-01-07T00:50:19;24.60;;;8.35;;
19848;SDS011;10085;51.120;6.956;2024-01-07T01:09:50;26.98;;;9.50;;
19848;SDS011;10085;51.120;6.956;2024-01-07T01:19:52;27.85;;;10.32;;
19848;SDS011;10085;51.120;6.956;2024-01-07T01:29:57;30.77;;;11.18;;
19848;SDS011;10085;51.120;6.956;2024-01-07T01:39:59;30.45;;;9.63;;
19848;SDS011;10085;51.120;6.956;2024-01-07T01:50:04;37.58;;;12.75;;
19848;SDS011;10085;51.120;6.956;2024-01-07T02:00:07;28.42;;;10.38;;
19848;SDS011;10085;51.120;6.956;2024-01-07T02:10:11;34.28;;;11.48;;
19848;SDS011;10085;51.120;6.956;2024-01-07T02:20:14;37.92;;;12.70;;
19848;SDS011;10085;51.120;6.956;2024-01-07T02:30:18;37.78;;;11.95;;
19848;SDS011;10085;51.120;6.956;2024-01-07T02:40:21;27.20;;;9.55;;
19848;SDS011;10085;51.120;6.956;2024-01-07T02:50:25;32.40;;;11.45;;
19848;SDS011;10085;51.120;6.956;2024-01-07T03:00:27;37.53;;;11.02;;
19848;SDS011;10085;51.120;6.956;2024-01-07T03:10:32;37.53;;;12.77;;
19848;SDS011;10085;51.120;6.956;2024-01-07T03:20:35;33.83;;;11.57;;
19848;SDS011;10085;51.120;6.956;2024-01-07T03:30:39;35.78;;;11.10;;
19848;SDS011;10085;51.120;6.956;2024-01-07T03:40:41;39.30;;;12.70;;
19848;SDS011;10085;51.120;6.956;2024-01-07T03:50:45;38.95;;;12.35;;
19848;SDS011;10085;51.120;6.956;2024-01-07T04:00:48;41.65;;;14.02;;
19848;SDS011;10085;51.120;6.956;2024-01-07T04:10:52;31.60;;;11.27;;
19848;SDS011;10085;51.120;6.956;2024-01-07T04:20:54;30.92;;;10.73;;
19848;SDS011;10085;51.120;6.956;2024-01-07T04:30:58;22.67;;;8.57;;
19848;SDS011;10085;51.120;6.956;2024-01-07T04:41:01;28.08;;;9.35;;
19848;SDS011;10085;51.120;6.956;2024-01-07T04:51:06;31.02;;;10.60;;
19848;SDS011;10085;51.120;6.956;2024-01-07T05:01:09;19.60;;;7.95;;
19848;SDS011;10085;51.120;6.956;2024-01-07T05:11:13;33.88;;;11.20;;
19848;SDS011;10085;51.120;6.956;2024-01-07T05:21:18;30.63;;;10.77;;
19848;SDS011;10085;51.120;6.956;2024-01-07T05:31:21;22.40;;;8.95;;
19848;SDS011;10085;51.120;6.956;2024-01-07T05:41:24;34.65;;;12.07;;
19848;SDS011;10085;51.120;6.956;2024-01-07T05:51:28;25.80;;;8.53;;
19848;SDS011;10085;51.120;6.956;2024-01-07T06:01:31;32.37;;;11.90;;
19848;SDS011;10085;51.120;6.956;2024-01-07T06:11:35;27.80;;;10.75;;
19848;SDS011;10085;51.120;6.956;2024-01-07T06:21:38;24.23;;;9.65;;
19848;SDS011;10085;51.120;6.956;2024-01-07T06:31:45;33.50;;;11.95;;
19848;SDS011;10085;51.120;6.956;2024-01-07T06:41:48;25.48;;;9.73;;
19848;SDS011;10085;51.120;6.956;2024-01-07T06:51:52;32.25;;;11.38;;
19848;SDS011;10085;51.120;6.956;2024-01-07T07:01:54;20.27;;;7.68;;
19848;SDS011;10085;51.120;6.956;2024-01-07T07:11:59;26.55;;;10.52;;
19848;SDS011;10085;51.120;6.956;2024-01-07T07:22:03;28.67;;;11.18;;
19848;SDS011;10085;51.120;6.956;2024-01-07T07:32:07;35.00;;;13.50;;
19848;SDS011;10085;51.120;6.956;2024-01-07T07:42:10;30.53;;;11.50;;
19848;SDS011;10085;51.120;6.956;2024-01-07T07:52:14;28.83;;;12.40;;
19848;SDS011;10085;51.120;6.956;2024-01-07T08:02:17;32.47;;;13.33;;
19848;SDS011;10085;51.120;6.956;2024-01-07T08:12:21;31.80;;;12.83;;
19848;SDS011;10085;51.120;6.956;2024-01-07T08:22:24;31.20;;;13.00;;
19848;SDS011;10085;51.120;6.956;2024-01-07T08:32:27;23.57;;;10.53;;
19848;SDS011;10085;51.120;6.956;2024-01-07T08:42:30;26.63;;;11.77;;
19848;SDS011;10085;51.120;6.956;2024-01-07T08:52:34;20.07;;;8.70;;
19848;SDS011;10085;51.120;6.956;2024-01-07T10:58:24;17.27;;;8.17;;
19848;SDS011;10085;51.120;6.956;2024-01-07T11:08:28;16.37;;;8.00;;
19848;SDS011;10085;51.120;6.956;2024-01-07T11:18:39;12.73;;;6.23;;
19848;SDS011;10085;51.120;6.956;2024-01-07T11:28:43;20.42;;;8.45;;
19848;SDS011;10085;51.120;6.956;2024-01-07T11:38:51;15.75;;;7.82;;
19848;SDS011;10085;51.120;6.956;2024-01-07T11:48:56;15.77;;;6.93;;
19848;SDS011;10085;51.120;6.956;2024-01-07T11:59:02;13.13;;;5.33;;
19848;SDS011;10085;51.120;6.956;2024-01-07T12:09:05;10.30;;;4.82;;
19848;SDS011;10085;51.120;6.956;2024-01-07T12:19:09;10.48;;;5.40;;
19848;SDS011;10085;51.120;6.956;2024-01-07T12:29:12;12.32;;;5.93;;
19848;SDS011;10085;51.120;6.956;2024-01-07T12:39:17;7.28;;;4.18;;
19848;SDS011;10085;51.120;6.956;2024-01-07T12:49:20;12.05;;;6.18;;
19848;SDS011;10085;51.120;6.956;2024-01-07T12:59:25;8.50;;;4.65;;
19848;SDS011;10085;51.120;6.956;2024-01-07T13:09:28;10.48;;;5.40;;
19848;SDS011;10085;51.120;6.956;2024-01-07T13:19:32;11.13;;;5.43;;
19848;SDS011;10085;51.120;6.956;2024-01-07T13:29:35;11.07;;;4.90;;
19848;SDS011;10085;51.120;6.956;2024-01-07T13:39:40;8.13;;;4.75;;
19848;SDS011;10085;51.120;6.956;2024-01-07T13:49:43;7.00;;;4.17;;
19848;SDS011;10085;51.120;6.956;2024-01-07T13:59:47;4.10;;;2.47;;
19848;SDS011;10085;51.120;6.956;2024-01-07T14:09:50;4.97;;;2.85;;
19848;SDS011;10085;51.120;6.956;2024-01-07T14:19:54;7.55;;;3.05;;
19848;SDS011;10085;51.120;6.956;2024-01-07T14:29:57;7.32;;;4.05;;
19848;SDS011;10085;51.120;6.956;2024-01-07T14:40:02;4.57;;;2.53;;
19848;SDS011;10085;51.120;6.956;2024-01-07T14:50:06;4.57;;;2.72;;
19848;SDS011;10085;51.120;6.956;2024-01-07T15:00:11;3.90;;;2.17;;
19848;SDS011;10085;51.120;6.956;2024-01-07T15:10:15;6.15;;;3.72;;
19848;SDS011;10085;51.120;6.956;2024-01-07T15:20:21;7.18;;;3.58;;
19848;SDS011;10085;51.120;6.956;2024-01-07T15:30:24;4.50;;;2.95;;
19848;SDS011;10085;51.120;6.956;2024-01-07T15:40:28;3.67;;;1.97;;
19848;SDS011;10085;51.120;6.956;2024-01-07T15:50:32;4.63;;;2.58;;
19848;SDS011;10085;51.120;6.956;2024-01-07T16:00:36;5.05;;;2.80;;
19848;SDS011;10085;51.120;6.956;2024-01-07T16:10:39;5.50;;;2.40;;
19848;SDS011;10085;51.120;6.956;2024-01-07T16:20:44;5.63;;;2.63;;
19848;SDS011;10085;51.120;6.956;2024-01-07T16:30:46;5.60;;;3.03;;
19848;SDS011;10085;51.120;6.956;2024-01-07T16:40:52;4.38;;;2.83;;
19848;SDS011;10085;51.120;6.956;2024-01-07T16:50:55;4.23;;;2.67;;
19848;SDS011;10085;51.120;6.956;2024-01-07T17:00:59;5.60;;;2.93;;
19848;SDS011;10085;51.120;6.956;2024-01-07T17:11:02;5.80;;;3.00;;
19848;SDS011;10085;51.120;6.956;2024-01-07T17:21:07;2.70;;;1.53;;
19848;SDS011;10085;51.120;6.956;2024-01-07T17:31:10;6.73;;;3.23;;
19848;SDS011;10085;51.120;6.956;2024-01-07T17:41:14;4.87;;;2.30;;
19848;SDS011;10085;51.120;6.956;2024-01-07T17:51:17;4.00;;;1.87;;
19848;SDS011;10085;51.120;6.956;2024-01-07T18:01:22;5.22;;;2.20;;
19848;SDS011;10085;51.120;6.956;2024-01-07T18:11:25;5.53;;;2.60;;
19848;SDS011;10085;51.120;6.956;2024-01-07T18:21:29;3.70;;;2.33;;
19848;SDS011;10085;51.120;6.956;2024-01-07T18:31:32;5.75;;;2.90;;
19848;SDS011;10085;51.120;6.956;2024-01-07T18:41:37;6.32;;;3.13;;
19848;SDS011;10085;51.120;6.956;2024-01-07T18:51:40;6.43;;;3.53;;
19848;SDS011;10085;51.120;6.956;2024-01-07T19:01:45;7.25;;;3.05;;
19848;SDS011;10085;51.120;6.956;2024-01-07T19:11:48;7.07;;;2.38;;
19848;SDS011;10085;51.120;6.956;2024-01-07T19:21:52;5.40;;;3.03;;
19848;SDS011;10085;51.120;6.956;2024-01-07T19:31:55;4.97;;;2.53;;
19848;SDS011;10085;51.120;6.956;2024-01-07T19:42:00;8.25;;;3.38;;
19848;SDS011;10085;51.120;6.956;2024-01-07T19:52:04;7.10;;;3.53;;
19848;SDS011;10085;51.120;6.956;2024-01-07T20:02:09;7.10;;;3.40;;
19848;SDS011;10085;51.120;6.956;2024-01-07T20:12:11;8.93;;;4.07;;
19848;SDS011;10085;51.120;6.956;2024-01-07T20:22:16;9.25;;;3.97;;
19848;SDS011;10085;51.120;6.956;2024-01-07T20:32:19;5.53;;;3.23;;
19848;SDS011;10085;51.120;6.956;2024-01-07T20:42:23;8.80;;;4.10;;
19848;SDS011;10085;51.120;6.956;2024-01-07T20:52:40;7.43;;;3.37;;
19848;SDS011;10085;51.120;6.956;2024-01-07T21:02:45;12.53;;;4.40;;
19848;SDS011;10085;51.120;6.956;2024-01-07T21:12:48;6.67;;;3.37;;
19848;SDS011;10085;51.120;6.956;2024-01-07T21:22:52;5.93;;;2.90;;
19848;SDS011;10085;51.120;6.956;2024-01-07T21:32:55;6.77;;;3.60;;
19848;SDS011;10085;51.120;6.956;2024-01-07T21:42:59;9.73;;;4.27;;
19848;SDS011;10085;51.120;6.956;2024-01-07T21:53:02;6.13;;;3.03;;
19848;SDS011;10085;51.120;6.956;2024-01-07T22:03:07;4.97;;;2.60;;
19848;SDS011;10085;51.120;6.956;2024-01-07T22:13:09;10.87;;;3.90;;
19848;SDS011;10085;51.120;6.956;2024-01-07T22:23:14;10.63;;;4.43;;
19848;SDS011;10085;51.120;6.956;2024-01-07T22:33:17;7.67;;;3.33;;
19848;SDS011;10085;51.120;6.956;2024-01-07T22:43:21;10.73;;;4.40;;
19848;SDS011;10085;51.120;6.956;2024-01-07T22:53:24;5.07;;;3.30;;
19848;SDS011;10085;51.120;6.956;2024-01-07T23:03:28;8.97;;;4.40;;
19848;SDS011;10085;51.120;6.956;2024-01-07T23:13:31;4.70;;;2.80;;
19848;SDS011;10085;51.120;6.956;2024-01-07T23:23:35;8.53;;;3.03;;
19848;SDS011;10085;51.120;6.956;2024-01-07T23:33:38;6.20;;;2.33;;
19848;SDS011;10085;51.120;6.956;2024-01-07T23:43:44;3.23;;;2.13;;
